Weather History for KOLZ - April, 2013

Change the Weather History Date:

Tuesday, April 23, 2013

  Actual Average Record
Temperature  
Mean Temperature 40 °F -  
Max Temperature 46 °F 61 °F 87 °F (1980)
Min Temperature 33 °F 39 °F 22 °F (1956)
Degree Days  
Heating Degree Days 26    
Moisture  
Dew Point 32 °F    
Average Humidity 81    
Maximum Humidity 100    
Minimum Humidity 65    
Precipitation  
Precipitation 0.00 in - - ()
Sea Level Pressure  
Sea Level Pressure 30.04 in    
Wind  
Wind Speed 15 mph (NNW)    
Max Wind Speed 22 mph    
Max Gust Speed 26 mph    
Visibility 10 miles    
Events      
Averages and records for this station are not official NWS values.
T = Trace of Precipitation, MM = Missing Value Source: NWS Daily Summary

Daily Weather History Graph

Daily Weather History Graph

Search for Another Location

Airport or City:

Trip Planner

Search our weather history database for the weather conditions in past years. The results will help you decide how hot, cold, wet, or windy it might be!

Date:

Astronomy

Apr. 23, 2013 Rise Set
Actual Time 6:13 AM CDT 7:59 PM CDT
Civil Twilight 5:43 AM CDT 8:29 PM CDT
Nautical Twilight 5:07 AM CDT 9:06 PM CDT
Astronomical Twilight 4:27 AM CDT 9:45 PM CDT
Moon 5:52 PM CDT (4/23) 4:44 AM CDT (4/23)
Length of Visible Light 14h 46m
Length of Day
13h 45m
Waxing Gibbous, 94% of the Moon is Illuminated
Apr 23
Waxing Gibbous
Apr 25
Full
May 2
Last Quarter
May 9
New
May 17
First Quarter

Hourly Weather History & Observations

Time (CDT) Temp. Windchill Dew Point Humidity Pressure Visibility Wind Dir Wind Speed Gust Speed Precip Events Conditions
12:15 AM 46.4 °F 41.9 °F 46.4 °F 100% 29.97 in 10.0 mi West 9.2 mph - N/A   Light Drizzle
12:35 AM 44.6 °F 38.4 °F 42.8 °F 93% 29.97 in 7.0 mi WNW 12.7 mph - N/A   Unknown
12:55 AM 42.8 °F 36.6 °F 41.0 °F 93% 29.96 in 10.0 mi WNW 11.5 mph - N/A   Unknown
1:15 AM 41.0 °F 32.2 °F 39.2 °F 93% 29.98 in 10.0 mi WNW 18.4 mph - N/A   Unknown
1:35 AM 37.4 °F 27.5 °F 37.4 °F 100% 30.00 in 10.0 mi NW 18.4 mph - N/A   Unknown
2:15 AM 37.4 °F 28.5 °F 35.6 °F 93% 30.01 in 10.0 mi NW 15.0 mph - N/A   Unknown
2:55 AM 35.6 °F 26.6 °F 33.8 °F 93% 30.01 in 10.0 mi NNW 13.8 mph 25.3 mph N/A   Unknown
3:15 AM 35.6 °F 25.9 °F 33.8 °F 93% 30.02 in 10.0 mi NW 16.1 mph 21.9 mph N/A   Unknown
3:35 AM 35.6 °F 24.8 °F 32.0 °F 87% 30.02 in 10.0 mi NW 19.6 mph 25.3 mph N/A   Unknown
3:55 AM 35.6 °F 25.9 °F 32.0 °F 87% 30.02 in 10.0 mi NNW 16.1 mph 23.0 mph N/A   Unknown
4:15 AM 35.6 °F 25.2 °F 32.0 °F 87% 30.00 in 10.0 mi NNW 18.4 mph 25.3 mph N/A   Unknown
4:35 AM 35.6 °F 25.5 °F 32.0 °F 87% 30.02 in 10.0 mi NNW 17.3 mph 24.2 mph N/A   Unknown
4:55 AM 35.6 °F 25.5 °F 32.0 °F 87% 30.04 in 10.0 mi NNW 17.3 mph 25.3 mph N/A   Unknown
5:15 AM 35.6 °F 27.1 °F 32.0 °F 87% 30.05 in 10.0 mi NNW 12.7 mph 26.5 mph N/A   Unknown
5:35 AM 35.6 °F 25.2 °F 32.0 °F 87% 30.04 in 10.0 mi NNW 18.4 mph 21.9 mph N/A   Unknown
5:55 AM 35.6 °F 25.5 °F 32.0 °F 87% 30.03 in 10.0 mi NNW 17.3 mph 23.0 mph N/A   Unknown
6:15 AM 35.6 °F 24.8 °F 32.0 °F 87% 30.04 in 10.0 mi NNW 19.6 mph 25.3 mph N/A   Unknown
6:35 AM 33.8 °F 22.8 °F 32.0 °F 93% 30.04 in 10.0 mi NNW 18.4 mph 23.0 mph N/A   Unknown
6:55 AM 33.8 °F 25.3 °F 32.0 °F 93% 30.05 in 10.0 mi NNW 11.5 mph 24.2 mph N/A   Unknown
7:15 AM 33.8 °F 23.2 °F 32.0 °F 93% 30.06 in 10.0 mi NNW 17.3 mph 24.2 mph N/A   Unknown
7:35 AM 33.8 °F 24.3 °F 32.0 °F 93% 30.05 in 10.0 mi NNW 13.8 mph 20.7 mph N/A   Unknown
7:55 AM 33.8 °F 21.9 °F 32.0 °F 93% 30.05 in 10.0 mi North 21.9 mph 25.3 mph N/A   Unknown
8:15 AM 33.8 °F 22.2 °F 32.0 °F 93% 30.04 in 10.0 mi North 20.7 mph 25.3 mph N/A   Unknown
8:35 AM 35.6 °F 25.9 °F 32.0 °F 87% 30.06 in 10.0 mi NNW 16.1 mph 26.5 mph N/A   Unknown
8:55 AM 35.6 °F 26.6 °F 32.0 °F 87% 30.07 in 10.0 mi NNW 13.8 mph 24.2 mph N/A   Unknown
9:15 AM 35.6 °F 25.2 °F 30.2 °F 81% 30.07 in 10.0 mi NNW 18.4 mph - N/A   Unknown
9:35 AM 35.6 °F 26.2 °F 32.0 °F 87% 30.07 in 10.0 mi North 15.0 mph 21.9 mph N/A   Unknown
9:55 AM 35.6 °F 25.9 °F 30.2 °F 81% 30.06 in 10.0 mi NNW 16.1 mph 21.9 mph N/A   Unknown
10:15 AM 35.6 °F 26.6 °F 32.0 °F 87% 30.06 in 10.0 mi North 13.8 mph - N/A   Unknown
10:35 AM 35.6 °F 25.5 °F 30.2 °F 81% 30.07 in 10.0 mi North 17.3 mph 20.7 mph N/A   Unknown
10:55 AM 35.6 °F 26.2 °F 32.0 °F 87% 30.07 in 10.0 mi NNW 15.0 mph 21.9 mph N/A   Unknown
11:15 AM 35.6 °F 24.8 °F 30.2 °F 81% 30.06 in 10.0 mi North 19.6 mph 25.3 mph N/A   Unknown
11:35 AM 35.6 °F 24.8 °F 30.2 °F 81% 30.07 in 10.0 mi North 19.6 mph 26.5 mph N/A   Unknown
11:55 AM 35.6 °F 25.9 °F 30.2 °F 81% 30.07 in 10.0 mi North 16.1 mph 21.9 mph N/A   Unknown
12:15 PM 35.6 °F 25.2 °F 30.2 °F 81% 30.07 in 10.0 mi North 18.4 mph 23.0 mph N/A   Unknown
12:35 PM 35.6 °F 26.2 °F 32.0 °F 87% 30.06 in 10.0 mi North 15.0 mph - N/A   Unknown
12:55 PM 35.6 °F 25.9 °F 30.2 °F 81% 30.06 in 10.0 mi North 16.1 mph 21.9 mph N/A   Unknown
1:15 PM 37.4 °F 28.9 °F 30.2 °F 75% 30.06 in 10.0 mi NNW 13.8 mph 21.9 mph N/A   Unknown
1:35 PM 37.4 °F 28.9 °F 32.0 °F 81% 30.05 in 10.0 mi NNW 13.8 mph - N/A   Unknown
1:55 PM 37.4 °F 28.9 °F 32.0 °F 81% 30.05 in 10.0 mi NNW 13.8 mph 18.4 mph N/A   Unknown
2:15 PM 37.4 °F 28.5 °F 32.0 °F 81% 30.05 in 10.0 mi North 15.0 mph - N/A   Unknown
2:35 PM 37.4 °F 28.5 °F 30.2 °F 75% 30.05 in 10.0 mi NNW 15.0 mph - N/A   Unknown
2:55 PM 37.4 °F 28.9 °F 32.0 °F 81% 30.05 in 10.0 mi NNW 13.8 mph - N/A   Unknown
3:15 PM 39.2 °F 30.8 °F 32.0 °F 75% 30.04 in 10.0 mi NNW 15.0 mph 20.7 mph N/A   Unknown
3:35 PM 39.2 °F 30.8 °F 30.2 °F 70% 30.04 in 10.0 mi North 15.0 mph 20.7 mph N/A   Unknown
3:55 PM 39.2 °F 30.5 °F 30.2 °F 70% 30.03 in 10.0 mi NNW 16.1 mph 20.7 mph N/A   Unknown
4:15 PM 41.0 °F 33.1 °F 32.0 °F 70% 30.03 in 10.0 mi NNW 15.0 mph 19.6 mph N/A   Unknown
4:35 PM 41.0 °F 32.8 °F 32.0 °F 70% 30.02 in 10.0 mi NNW 16.1 mph 20.7 mph N/A   Unknown
4:55 PM 41.0 °F 32.5 °F 32.0 °F 70% 30.03 in 10.0 mi North 17.3 mph 24.2 mph N/A   Unknown
5:15 PM 41.0 °F 33.1 °F 30.2 °F 65% 30.02 in 10.0 mi North 15.0 mph - N/A   Unknown
5:35 PM 41.0 °F 33.1 °F 30.2 °F 65% 30.02 in 10.0 mi NNW 15.0 mph 20.7 mph N/A   Unknown
5:55 PM 41.0 °F 33.1 °F 30.2 °F 65% 30.01 in 10.0 mi North 15.0 mph 21.9 mph N/A   Unknown
6:15 PM 41.0 °F 32.8 °F 30.2 °F 65% 30.02 in 10.0 mi NNW 16.1 mph 23.0 mph N/A   Unknown
6:35 PM 41.0 °F 32.8 °F 30.2 °F 65% 30.02 in 10.0 mi NNW 16.1 mph 23.0 mph N/A   Unknown
6:55 PM 39.2 °F 31.2 °F 28.4 °F 65% 30.02 in 10.0 mi NNW 13.8 mph 20.7 mph N/A   Unknown
7:15 PM 39.2 °F 32.0 °F 28.4 °F 65% 30.03 in 10.0 mi NNW 11.5 mph - N/A   Unknown
7:35 PM 37.4 °F 28.9 °F 28.4 °F 70% 30.03 in 10.0 mi NNW 13.8 mph 18.4 mph N/A   Unknown
7:55 PM 37.4 °F 30.3 °F 28.4 °F 70% 30.04 in 10.0 mi NNW 10.4 mph - N/A   Unknown
8:15 PM 37.4 °F 30.3 °F 28.4 °F 70% 30.04 in 10.0 mi NNW 10.4 mph 16.1 mph N/A   Unknown
8:35 PM 37.4 °F 29.8 °F 28.4 °F 70% 30.05 in 10.0 mi NNW 11.5 mph - N/A   Unknown
8:55 PM 35.6 °F 27.5 °F 28.4 °F 75% 30.05 in 10.0 mi NNW 11.5 mph - N/A   Unknown
9:15 PM 35.6 °F 26.6 °F 28.4 °F 75% 30.06 in 10.0 mi NNW 13.8 mph - N/A   Unknown
9:35 PM 35.6 °F 27.1 °F 28.4 °F 75% 30.06 in 10.0 mi NNW 12.7 mph - N/A   Unknown
9:55 PM 35.6 °F 28.0 °F 28.4 °F 75% 30.07 in 10.0 mi NNW 10.4 mph - N/A   Unknown
10:15 PM 33.8 °F 26.4 °F 28.4 °F 81% 30.06 in 10.0 mi NW 9.2 mph - N/A   Unknown
10:35 PM 33.8 °F 25.8 °F 28.4 °F 81% 30.06 in 10.0 mi NW 10.4 mph - N/A   Unknown
10:55 PM 33.8 °F 26.4 °F 28.4 °F 81% 30.06 in 10.0 mi NW 9.2 mph - N/A   Unknown
11:15 PM 33.8 °F - 28.4 °F 81% 30.06 in 10.0 mi Calm Calm - N/A   Unknown
11:35 PM 33.8 °F 27.7 °F 28.4 °F 81% 30.06 in 10.0 mi NW 6.9 mph - N/A   Unknown
11:55 PM 33.8 °F 27.0 °F 28.4 °F 81% 30.06 in 10.0 mi NW 8.1 mph - N/A   Unknown